createdAt,value
2023-01-04T00:01:24.697Z,101760.22
2023-01-04T00:03:51.664Z,101763.81
2023-01-04T00:06:19.142Z,101774.38
2023-01-04T00:08:45.883Z,101769.97
2023-01-04T00:11:19.439Z,101743.72
2023-01-04T00:13:51.224Z,101751.72
2023-01-04T00:16:23.849Z,101681.94
2023-01-04T00:18:50.967Z,101748.81
2023-01-04T00:21:29.090Z,101661.47
2023-01-04T00:23:58.322Z,101656.88
2023-01-04T00:26:27.247Z,101737.78
2023-01-04T00:28:55.410Z,101691.72
2023-01-04T00:31:23.180Z,101723.31
2023-01-04T00:33:50.536Z,101687.34
2023-01-04T00:36:17.219Z,101721.84
2023-01-04T00:38:43.808Z,101698.41
2023-01-04T00:41:28.246Z,101633.56
2023-01-04T00:44:03.051Z,101674.59
2023-01-04T00:46:29.909Z,101683.72
2023-01-04T00:49:00.069Z,101661.16
2023-01-04T00:51:29.315Z,101661.34
2023-01-04T00:53:56.198Z,101687.31
2023-01-04T00:56:23.050Z,101664.78
2023-01-04T00:58:49.630Z,101626.31
2023-01-04T01:01:16.195Z,101657.44
2023-01-04T01:03:44.514Z,101656.44
2023-01-04T01:06:12.381Z,101635.94
2023-01-04T01:08:39.372Z,101634.41
2023-01-04T01:11:09.402Z,101628.84
2023-01-04T01:13:37.502Z,101646.75
2023-01-04T01:16:10.388Z,101635.34
2023-01-04T01:18:39.224Z,101555.31
2023-01-04T01:21:10.454Z,101624.59
2023-01-04T01:23:37.553Z,101631.00
2023-01-04T01:26:07.032Z,101634.56
2023-01-04T01:28:35.563Z,101647.91
2023-01-04T01:31:11.664Z,101633.13
2023-01-04T01:33:39.553Z,101631.28
2023-01-04T01:36:07.221Z,101543.63
2023-01-04T01:38:34.193Z,101574.31
2023-01-04T01:41:00.807Z,101592.41
2023-01-04T01:43:46.978Z,101528.03
2023-01-04T01:46:14.901Z,101597.00
2023-01-04T01:48:42.443Z,101602.69
2023-01-04T01:51:09.442Z,101524.59
2023-01-04T01:53:40.731Z,101514.94
2023-01-04T01:56:09.656Z,101578.16
2023-01-04T01:58:42.196Z,101559.22
2023-01-04T02:01:09.259Z,101575.34
2023-01-04T02:03:39.762Z,101538.81
2023-01-04T02:06:10.002Z,101564.81
2023-01-04T02:08:45.818Z,101575.03
2023-01-04T02:11:12.438Z,101552.75
2023-01-04T02:13:59.285Z,101542.72
2023-01-04T02:16:52.508Z,101582.38
2023-01-04T02:19:34.394Z,101578.16
2023-01-04T02:22:30.781Z,101587.91
2023-01-04T02:25:38.968Z,101554.97
2023-01-04T02:28:31.350Z,101562.34
2023-01-04T02:31:16.539Z,101570.34
2023-01-04T02:33:58.696Z,101565.75
2023-01-04T02:36:48.109Z,101568.56
2023-01-04T02:39:29.695Z,101555.19
2023-01-04T02:42:06.331Z,101551.84
2023-01-04T02:44:53.974Z,101456.56
2023-01-04T02:47:53.828Z,101522.72
2023-01-04T02:50:31.999Z,101510.88
2023-01-04T02:53:08.703Z,101532.44
2023-01-04T02:56:09.299Z,101431.41
2023-01-04T02:58:54.924Z,101535.25
2023-01-04T03:02:03.462Z,101530.81
2023-01-04T03:05:29.237Z,101462.78
2023-01-04T03:08:15.847Z,101511.63
2023-01-04T03:11:04.261Z,101506.28
2023-01-04T03:13:45.764Z,101429.19
2023-01-04T03:16:23.684Z,101483.19
2023-01-04T03:18:54.921Z,101398.31
2023-01-04T03:21:24.828Z,101462.16
2023-01-04T03:24:13.456Z,101466.91
2023-01-04T03:27:04.660Z,101465.13
2023-01-04T03:29:55.194Z,101476.84
2023-01-04T03:33:04.931Z,101464.53
2023-01-04T03:35:45.198Z,101408.94
2023-01-04T03:38:55.121Z,101452.03
2023-01-04T03:41:50.840Z,101438.56
2023-01-04T03:44:48.585Z,101442.22
2023-01-04T03:47:43.584Z,101375.25
2023-01-04T03:50:17.959Z,101439.72
2023-01-04T03:52:47.417Z,101427.31
2023-01-04T03:55:15.979Z,101411.16
2023-01-04T03:57:42.676Z,101426.66
2023-01-04T04:00:13.280Z,101302.91
2023-01-04T04:02:40.872Z,101417.13
2023-01-04T04:05:27.268Z,101399.09
2023-01-04T04:08:12.618Z,101406.19
2023-01-04T04:10:39.176Z,101422.81
2023-01-04T04:13:05.728Z,101316.13
2023-01-04T04:15:32.259Z,101397.69
2023-01-04T04:17:58.806Z,101408.31
2023-01-04T04:20:25.341Z,101419.38
2023-01-04T04:22:51.878Z,101402.31
2023-01-04T04:25:18.410Z,101406.84
2023-01-04T04:27:44.908Z,101359.53
2023-01-04T04:30:11.753Z,101388.28
2023-01-04T04:32:38.299Z,101389.22
2023-01-04T04:35:06.213Z,101375.00
2023-01-04T04:37:34.141Z,101398.22
2023-01-04T04:40:01.513Z,101406.31
2023-01-04T04:42:28.150Z,101391.16
2023-01-04T04:44:54.694Z,101381.38
2023-01-04T04:47:21.243Z,101357.19
2023-01-04T04:49:47.818Z,101373.44
2023-01-04T04:52:14.562Z,101395.91
2023-01-04T04:54:41.152Z,101355.63
2023-01-04T04:57:07.787Z,101387.97
2023-01-04T04:59:34.268Z,101401.31
2023-01-04T05:02:01.016Z,101377.16
2023-01-04T05:04:27.671Z,101386.91
2023-01-04T05:06:54.298Z,101378.00
2023-01-04T05:09:20.816Z,101369.16
2023-01-04T05:12:06.085Z,101381.84
2023-01-04T05:14:32.647Z,101352.41
2023-01-04T05:16:59.323Z,101330.19
2023-01-04T05:19:25.925Z,101381.25
2023-01-04T05:21:52.569Z,101361.44
2023-01-04T05:24:21.201Z,101372.19
2023-01-04T05:26:47.898Z,101378.47
2023-01-04T05:29:34.479Z,101342.81
2023-01-04T05:32:02.178Z,101349.16
2023-01-04T05:34:28.886Z,101351.03
2023-01-04T05:36:55.476Z,101331.53
2023-01-04T05:39:22.111Z,101352.13
2023-01-04T05:42:07.064Z,101357.66
2023-01-04T05:44:34.651Z,101346.16
2023-01-04T05:47:02.133Z,101338.22
2023-01-04T05:49:28.895Z,101267.41
2023-01-04T05:51:55.454Z,101339.22
2023-01-04T05:54:21.948Z,101322.28
2023-01-04T05:56:48.479Z,101300.06
2023-01-04T05:59:16.048Z,101328.75
2023-01-04T06:01:42.585Z,101301.03
2023-01-04T06:04:09.252Z,101246.44
2023-01-04T06:06:35.891Z,101310.06
2023-01-04T06:09:02.518Z,101229.50
2023-01-04T06:11:28.995Z,101293.09
2023-01-04T06:13:55.521Z,101310.13
2023-01-04T06:16:22.079Z,101313.72
2023-01-04T06:18:48.593Z,101303.94
2023-01-04T06:21:15.118Z,101305.88
2023-01-04T06:23:41.744Z,101301.34
2023-01-04T06:26:08.254Z,101309.41
2023-01-04T06:28:40.498Z,101296.81
2023-01-04T06:31:09.398Z,101313.06
2023-01-04T06:33:36.201Z,101239.72
2023-01-04T06:36:03.580Z,101224.56
2023-01-04T06:38:30.655Z,101295.56
2023-01-04T06:40:57.162Z,101299.09
2023-01-04T06:43:23.736Z,101281.25
2023-01-04T06:45:50.486Z,101168.28
2023-01-04T06:48:17.875Z,101288.22
2023-01-04T06:50:44.990Z,101229.16
2023-01-04T06:53:11.461Z,101227.25
2023-01-04T06:55:38.051Z,101305.38
2023-01-04T06:58:04.619Z,101302.69
2023-01-04T07:00:31.103Z,101320.66
2023-01-04T07:03:14.990Z,101310.94
2023-01-04T07:05:43.157Z,101327.06
2023-01-04T07:08:10.116Z,101192.00
2023-01-04T07:10:37.369Z,101291.41
2023-01-04T07:13:04.333Z,101288.75
2023-01-04T07:15:39.317Z,101289.81
2023-01-04T07:18:08.094Z,101304.94
2023-01-04T07:20:34.720Z,101296.06
2023-01-04T07:23:01.262Z,101300.63
2023-01-04T07:25:27.794Z,101281.94
2023-01-04T07:27:55.677Z,101288.16
2023-01-04T07:30:23.689Z,101284.66
2023-01-04T07:32:52.944Z,101212.34
2023-01-04T07:35:19.953Z,101274.25
2023-01-04T07:37:47.940Z,101188.47
2023-01-04T07:40:17.575Z,101268.94
2023-01-04T07:42:44.359Z,101198.34
2023-01-04T07:45:11.014Z,101263.00
2023-01-04T07:47:37.520Z,101234.41
2023-01-04T07:50:04.464Z,101164.72
2023-01-04T07:52:30.970Z,101220.31
2023-01-04T07:54:57.516Z,101224.91
2023-01-04T07:57:24.099Z,101218.75
2023-01-04T07:59:51.751Z,101224.97
2023-01-04T08:02:18.328Z,101217.94
2023-01-04T08:04:45.077Z,101217.16
2023-01-04T08:07:11.675Z,101226.06
2023-01-04T08:09:38.176Z,101145.47
2023-01-04T08:12:04.975Z,101223.41
2023-01-04T08:14:31.493Z,101208.22
2023-01-04T08:16:58.226Z,101189.34
2023-01-04T08:19:24.772Z,101204.63
2023-01-04T08:21:51.273Z,101218.00
2023-01-04T08:24:19.944Z,101227.78
2023-01-04T08:26:46.885Z,101181.38
2023-01-04T08:29:13.659Z,101228.69
2023-01-04T08:31:40.824Z,101220.59
2023-01-04T08:34:08.676Z,101190.06
2023-01-04T08:36:44.181Z,101206.19
2023-01-04T08:39:10.690Z,101214.41
2023-01-04T08:41:58.963Z,101229.47
2023-01-04T08:44:27.991Z,101239.44
2023-01-04T08:46:55.633Z,101228.81
2023-01-04T08:49:22.794Z,101231.50
2023-01-04T08:51:49.583Z,101228.81
2023-01-04T08:54:16.668Z,101226.94
2023-01-04T08:56:43.930Z,101225.34
2023-01-04T08:59:11.776Z,101211.06
2023-01-04T09:01:39.328Z,101218.25
2023-01-04T09:04:06.809Z,101231.56
2023-01-04T09:06:33.784Z,101181.38
2023-01-04T09:09:00.383Z,101242.25
2023-01-04T09:11:27.063Z,101236.19
2023-01-04T09:14:06.797Z,101211.28
2023-01-04T09:16:35.028Z,101226.59
2023-01-04T09:19:01.710Z,101229.31
2023-01-04T09:21:28.297Z,101219.63
2023-01-04T09:23:56.833Z,101212.38
2023-01-04T09:26:23.636Z,101205.34
2023-01-04T09:28:51.969Z,101125.09
2023-01-04T09:31:21.577Z,101209.81
2023-01-04T09:34:13.581Z,101224.94
2023-01-04T09:36:34.730Z,101203.47
2023-01-04T09:39:01.252Z,101224.06
2023-01-04T09:41:27.770Z,101226.72
2023-01-04T09:44:03.063Z,101224.88
2023-01-04T09:46:51.655Z,101224.84
2023-01-04T09:49:24.473Z,101225.66
2023-01-04T09:51:56.763Z,101191.66
2023-01-04T09:56:59.223Z,101239.00
2023-01-04T09:59:31.019Z,101218.47
2023-01-04T10:02:13.070Z,101210.50
2023-01-04T10:04:51.241Z,101203.41
2023-01-04T10:07:28.622Z,101230.06
2023-01-04T10:09:56.815Z,101222.94
2023-01-04T10:12:46.206Z,101236.28
2023-01-04T10:15:22.937Z,101228.34
2023-01-04T10:24:13.932Z,101246.16
2023-01-04T10:26:45.714Z,101223.84
2023-01-04T10:29:39.504Z,101239.91
2023-01-04T10:32:37.444Z,101204.25
2023-01-04T10:35:17.567Z,101217.66
2023-01-04T10:37:46.633Z,101223.84
2023-01-04T10:40:16.417Z,101246.16
2023-01-04T10:43:04.611Z,101229.28
2023-01-04T10:45:40.018Z,101093.44
2023-01-04T10:48:27.371Z,101212.34
2023-01-04T10:51:07.037Z,101206.22
2023-01-04T10:53:57.625Z,101205.28
2023-01-04T10:56:45.573Z,101206.19
2023-01-04T10:59:22.969Z,101214.28
2023-01-04T11:02:00.579Z,101213.31
2023-01-04T11:04:39.091Z,101196.41
2023-01-04T11:07:27.577Z,101203.56
2023-01-04T11:10:14.722Z,101194.66
2023-01-04T11:12:41.350Z,101179.53
2023-01-04T11:15:08.536Z,101170.56
2023-01-04T11:17:36.137Z,101196.44
2023-01-04T11:20:03.039Z,101191.13
2023-01-04T11:22:41.446Z,101207.22
2023-01-04T11:28:18.137Z,101184.00
2023-01-04T11:31:16.372Z,101209.09
2023-01-04T11:33:57.202Z,101212.59
2023-01-04T11:36:34.869Z,101207.25
2023-01-04T11:39:02.552Z,101072.41
2023-01-04T11:41:29.157Z,101184.22
2023-01-04T11:44:01.886Z,101184.19
2023-01-04T11:46:30.391Z,101138.53
2023-01-04T11:48:57.470Z,101189.50
2023-01-04T11:51:25.395Z,101197.50
2023-01-04T11:54:13.248Z,101193.94
2023-01-04T11:56:56.367Z,101184.97
2023-01-04T11:59:25.771Z,101169.72
2023-01-04T12:02:42.298Z,101163.56
2023-01-04T12:05:03.082Z,101180.47
2023-01-04T12:07:35.403Z,101182.31
2023-01-04T12:10:23.715Z,101158.28
2023-01-04T12:12:50.349Z,101161.88
2023-01-04T12:15:34.607Z,101172.66
2023-01-04T12:18:17.602Z,101149.44
2023-01-04T12:20:45.116Z,101161.00
2023-01-04T12:23:13.366Z,101132.44
2023-01-04T12:26:00.843Z,101187.81
2023-01-04T12:28:31.673Z,101174.41
2023-01-04T12:31:20.966Z,101186.97
2023-01-04T12:33:55.241Z,101162.72
2023-01-04T12:36:37.103Z,101193.13
2023-01-04T12:39:28.956Z,101093.19
2023-01-04T12:42:01.648Z,101181.72
2023-01-04T12:44:37.529Z,101196.97
2023-01-04T12:47:43.535Z,101184.66
2023-01-04T12:50:18.943Z,101150.91
2023-01-04T12:53:11.242Z,101086.59
2023-01-04T12:55:37.784Z,101184.03
2023-01-04T12:58:42.332Z,101170.84
2023-01-04T13:01:27.922Z,101160.25
2023-01-04T13:04:05.555Z,101155.88
2023-01-04T13:06:42.472Z,101130.13
2023-01-04T13:09:24.943Z,101151.56
2023-01-04T13:12:12.624Z,101144.47
2023-01-04T13:14:47.949Z,101125.81
2023-01-04T13:17:18.244Z,101160.56
2023-01-04T13:19:45.889Z,101144.44
2023-01-04T13:22:28.866Z,101068.56
2023-01-04T13:24:58.272Z,101158.66
2023-01-04T13:27:28.522Z,101172.97
2023-01-04T13:29:55.216Z,101150.66
2023-01-04T13:32:28.099Z,101154.25
2023-01-04T13:34:59.611Z,101117.59
2023-01-04T13:37:43.999Z,101136.41
2023-01-04T13:40:27.263Z,101164.06
2023-01-04T13:43:02.309Z,101157.72
2023-01-04T13:45:53.740Z,101175.56
2023-01-04T13:48:25.956Z,101161.25
2023-01-04T13:51:04.738Z,101093.41
2023-01-04T13:53:32.548Z,101177.38
2023-01-04T13:56:01.930Z,101140.81
2023-01-04T13:58:37.633Z,101090.75
2023-01-04T14:01:12.986Z,101110.53
2023-01-04T14:03:46.323Z,101142.66
2023-01-04T14:06:20.147Z,101146.25
2023-01-04T14:08:56.383Z,101171.25
2023-01-04T14:11:46.457Z,101152.50
2023-01-04T14:14:27.552Z,101147.22
2023-01-04T14:17:06.994Z,101149.94
2023-01-04T14:19:44.722Z,101054.44
2023-01-04T14:22:20.981Z,101138.38
2023-01-04T14:27:41.342Z,101053.59
2023-01-04T14:30:20.325Z,101129.47
2023-01-04T14:33:13.106Z,101122.34
2023-01-04T14:35:44.062Z,101056.25
2023-01-04T14:38:18.763Z,101043.75
2023-01-04T14:40:46.058Z,101123.19
2023-01-04T14:43:35.341Z,101145.50
2023-01-04T14:46:02.515Z,101134.75
2023-01-04T14:48:30.133Z,101127.56
2023-01-04T14:50:59.302Z,101120.34
2023-01-04T14:53:25.981Z,101115.06
2023-01-04T14:55:54.613Z,101108.88
2023-01-04T14:58:22.083Z,101129.41
2023-01-04T15:00:48.884Z,101068.63
2023-01-04T15:03:15.561Z,101111.44
2023-01-04T15:05:45.953Z,101146.25
2023-01-04T15:08:14.160Z,101137.34
2023-01-04T15:10:40.764Z,101138.19
2023-01-04T15:13:07.377Z,101131.03
2023-01-04T15:15:34.001Z,101034.59
2023-01-04T15:18:00.646Z,101112.34
2023-01-04T15:20:27.203Z,101122.00
2023-01-04T15:22:53.703Z,101115.63
2023-01-04T15:25:20.373Z,101114.75
2023-01-04T15:27:46.815Z,101078.19
2023-01-04T15:30:14.106Z,101128.25
2023-01-04T15:32:41.647Z,101063.09
2023-01-04T15:35:08.717Z,101088.09
2023-01-04T15:37:35.300Z,101114.06
2023-01-04T15:40:03.537Z,101033.75
2023-01-04T15:42:49.018Z,101124.75
2023-01-04T15:45:15.805Z,101132.81
2023-01-04T15:47:42.337Z,101067.56
2023-01-04T15:50:09.064Z,101130.13
2023-01-04T15:52:35.697Z,101144.44
2023-01-04T15:55:02.205Z,101119.44
2023-01-04T15:57:28.706Z,101138.16
2023-01-04T15:59:55.165Z,101051.56
2023-01-04T16:02:21.906Z,101060.44
2023-01-04T16:04:49.495Z,101147.97
2023-01-04T16:07:17.324Z,101069.31
2023-01-04T16:09:43.895Z,101047.94
2023-01-04T16:12:29.033Z,101131.00
2023-01-04T16:14:55.519Z,101144.28
2023-01-04T16:17:22.050Z,101056.69
2023-01-04T16:19:48.527Z,101105.84
2023-01-04T16:22:15.020Z,101049.59
2023-01-04T16:27:34.803Z,101110.28
2023-01-04T16:30:07.361Z,101101.50
2023-01-04T16:32:35.166Z,101034.44
2023-01-04T16:35:01.680Z,101090.69
2023-01-04T16:37:28.823Z,101037.09
2023-01-04T16:40:10.828Z,101083.47
2023-01-04T16:42:38.602Z,101103.03
2023-01-04T16:45:06.337Z,101060.19
2023-01-04T16:47:41.251Z,101055.78
2023-01-04T16:50:09.577Z,101107.56
2023-01-04T16:52:36.155Z,101145.91
2023-01-04T16:55:02.837Z,101122.63
2023-01-04T16:57:29.396Z,101115.41
2023-01-04T16:59:56.086Z,101152.91
2023-01-04T17:02:23.229Z,101061.88
2023-01-04T17:04:55.121Z,101149.38
2023-01-04T17:07:21.718Z,101128.00
2023-01-04T17:09:49.654Z,101120.91
2023-01-04T17:12:46.208Z,101124.50
2023-01-04T17:17:49.217Z,101149.44
2023-01-04T17:20:15.767Z,101099.59
2023-01-04T17:22:42.256Z,101054.84
2023-01-04T17:25:08.793Z,101136.03
2023-01-04T17:27:35.420Z,101153.03
2023-01-04T17:30:02.144Z,101145.94
2023-01-04T17:32:28.669Z,101155.53
2023-01-04T17:34:57.490Z,101129.66
2023-01-04T17:37:24.175Z,101165.34
2023-01-04T17:39:50.628Z,101178.72
2023-01-04T17:42:17.207Z,101150.19
2023-01-04T17:44:43.745Z,101165.31
2023-01-04T17:47:10.253Z,101168.00
2023-01-04T17:49:38.602Z,101161.66
2023-01-04T17:52:08.056Z,101166.13
2023-01-04T17:54:35.182Z,101110.72
2023-01-04T17:57:01.660Z,101167.03
2023-01-04T17:59:28.165Z,101170.59
2023-01-04T18:01:54.799Z,101097.31
2023-01-04T18:04:21.303Z,101154.63
2023-01-04T18:06:47.780Z,101156.28
2023-01-04T18:09:18.486Z,101186.59
2023-01-04T18:11:49.016Z,101183.84
2023-01-04T18:14:15.549Z,101181.13
2023-01-04T18:16:57.909Z,101205.25
2023-01-04T18:19:27.876Z,101202.50
2023-01-04T18:21:55.399Z,101201.56
2023-01-04T18:24:38.573Z,101175.81
2023-01-04T18:27:27.452Z,101183.94
2023-01-04T18:29:55.447Z,101183.97
2023-01-04T18:32:23.870Z,101195.50
2023-01-04T18:34:50.393Z,101184.75
2023-01-04T18:37:18.439Z,101199.03
2023-01-04T18:39:45.369Z,101192.75
2023-01-04T18:42:11.930Z,101197.25
2023-01-04T18:44:44.188Z,101115.06
2023-01-04T18:47:14.378Z,101189.25
2023-01-04T18:49:40.855Z,101175.81
2023-01-04T18:52:07.349Z,101138.22
2023-01-04T18:54:33.834Z,101191.88
2023-01-04T18:57:01.288Z,101193.63
2023-01-04T18:59:32.055Z,101194.63
2023-01-04T19:02:01.537Z,101122.16
2023-01-04T19:04:34.456Z,101199.00
2023-01-04T19:07:01.990Z,101166.81
2023-01-04T19:09:28.533Z,101130.19
2023-01-04T19:11:54.998Z,101196.38
2023-01-04T19:14:21.635Z,101200.84
2023-01-04T19:16:48.241Z,101203.34
2023-01-04T19:19:14.737Z,101213.28
2023-01-04T19:21:41.330Z,101202.53
2023-01-04T19:24:07.868Z,101228.41
2023-01-04T19:26:34.406Z,101217.69
2023-01-04T19:29:00.918Z,101121.22
2023-01-04T19:31:27.505Z,101201.59
2023-01-04T19:33:54.026Z,101214.88
2023-01-04T19:36:20.607Z,101216.69
2023-01-04T19:38:47.160Z,101146.03
2023-01-04T19:41:29.106Z,101143.38
2023-01-04T19:44:01.789Z,101207.72
2023-01-04T19:46:28.439Z,101201.44
2023-01-04T19:48:55.616Z,101215.69
2023-01-04T19:51:22.111Z,101177.19
2023-01-04T19:53:48.638Z,101169.16
2023-01-04T19:56:16.846Z,101197.88
2023-01-04T19:58:43.684Z,101232.56
2023-01-04T20:01:19.957Z,101174.53
2023-01-04T20:03:47.273Z,101160.19
2023-01-04T20:06:14.774Z,101226.31
2023-01-04T20:08:41.968Z,101219.97
2023-01-04T20:11:09.530Z,101193.13
2023-01-04T20:13:37.077Z,101212.91
2023-01-04T20:16:06.718Z,101182.31
2023-01-04T20:18:34.360Z,101250.28
2023-01-04T20:21:01.051Z,101229.66
2023-01-04T20:23:27.871Z,101206.44
2023-01-04T20:25:54.806Z,101255.53
2023-01-04T20:28:24.264Z,101260.88
2023-01-04T20:31:03.882Z,101274.34
2023-01-04T20:33:30.768Z,101278.75
2023-01-04T20:35:57.819Z,101183.94
2023-01-04T20:38:24.402Z,101268.03
2023-01-04T20:40:51.007Z,101215.28
2023-01-04T20:43:32.804Z,101254.53
2023-01-04T20:46:20.357Z,101260.84
2023-01-04T20:48:47.908Z,101192.88
2023-01-04T20:51:21.280Z,101195.56
2023-01-04T20:53:48.068Z,101239.38
2023-01-04T20:56:17.510Z,101192.97
2023-01-04T20:58:45.654Z,101218.84
2023-01-04T21:01:13.575Z,101234.88
2023-01-04T21:03:40.542Z,101221.56
2023-01-04T21:06:09.897Z,101184.88
2023-01-04T21:08:38.242Z,101235.75
2023-01-04T21:11:05.061Z,101269.63
2023-01-04T21:13:32.415Z,101198.13
2023-01-04T21:15:59.346Z,101267.03
2023-01-04T21:18:26.657Z,101276.84
2023-01-04T21:20:54.329Z,101234.69
2023-01-04T21:23:23.436Z,101282.94
2023-01-04T21:25:50.861Z,101206.88
2023-01-04T21:28:20.487Z,101267.81
2023-01-04T21:30:48.360Z,101271.25
2023-01-04T21:33:16.316Z,101282.91
2023-01-04T21:35:43.350Z,101217.56
2023-01-04T21:38:11.296Z,101290.91
2023-01-04T21:40:40.344Z,101223.84
2023-01-04T21:43:07.869Z,101215.81
2023-01-04T21:45:39.465Z,101275.81
2023-01-04T21:48:06.203Z,101297.09
2023-01-04T21:50:33.143Z,101273.84
2023-01-04T21:52:59.835Z,101284.44
2023-01-04T21:55:32.406Z,101231.59
2023-01-04T21:58:00.607Z,101304.88
2023-01-04T22:00:27.192Z,101285.25
2023-01-04T22:02:53.809Z,101222.59
2023-01-04T22:05:20.495Z,101318.25
2023-01-04T22:07:47.091Z,101304.03
2023-01-04T22:10:13.579Z,101227.09
2023-01-04T22:12:40.211Z,101218.16
2023-01-04T22:15:07.495Z,101235.09
2023-01-04T22:17:33.977Z,101299.59
2023-01-04T22:20:00.661Z,101307.44
2023-01-04T22:22:29.389Z,101304.72
2023-01-04T22:24:55.836Z,101253.69
2023-01-04T22:27:22.417Z,101318.97
2023-01-04T22:29:48.969Z,101299.31
2023-01-04T22:32:15.467Z,101251.84
2023-01-04T22:34:42.044Z,101317.94
2023-01-04T22:37:08.553Z,101322.38
2023-01-04T22:39:35.055Z,101341.84
2023-01-04T22:42:01.671Z,101323.19
2023-01-04T22:44:28.245Z,101298.94
2023-01-04T22:46:54.794Z,101262.75
2023-01-04T22:49:21.386Z,101323.50
2023-01-04T22:51:47.969Z,101321.56
2023-01-04T22:54:14.485Z,101256.69
2023-01-04T22:56:41.093Z,101304.94
2023-01-04T22:59:09.470Z,101340.63
2023-01-04T23:01:36.001Z,101328.13
2023-01-04T23:04:03.594Z,101327.88
2023-01-04T23:06:31.992Z,101290.19
2023-01-04T23:09:04.885Z,101370.66
2023-01-04T23:11:33.532Z,101338.22
2023-01-04T23:14:02.373Z,101344.41
2023-01-04T23:16:32.859Z,101335.44
2023-01-04T23:19:01.618Z,101317.41
2023-01-04T23:21:28.712Z,101278.88
2023-01-04T23:23:55.374Z,101302.94
2023-01-04T23:26:24.335Z,101239.47
2023-01-04T23:28:51.716Z,101359.41
2023-01-04T23:31:21.565Z,101323.50
2023-01-04T23:33:51.906Z,101376.38
2023-01-04T23:36:21.509Z,101318.19
2023-01-04T23:38:53.877Z,101405.97
2023-01-04T23:41:21.263Z,101336.22
2023-01-04T23:43:48.840Z,101294.94
2023-01-04T23:46:17.201Z,101357.69
2023-01-04T23:48:44.374Z,101366.41
2023-01-04T23:51:14.630Z,101354.59
2023-01-04T23:53:41.271Z,101398.59
2023-01-04T23:56:14.703Z,101321.47
2023-01-04T23:58:42.260Z,101341.19
